createdAt,value
2022-08-21T00:00:32.716Z,46.60
2022-08-21T00:03:04.164Z,46.60
2022-08-21T00:05:32.281Z,46.60
2022-08-21T00:08:00.226Z,46.60
2022-08-21T00:10:28.292Z,46.60
2022-08-21T00:12:56.705Z,46.60
2022-08-21T00:15:27.009Z,46.60
2022-08-21T00:17:54.935Z,46.60
2022-08-21T00:20:24.506Z,46.70
2022-08-21T00:22:52.606Z,46.70
2022-08-21T00:25:20.971Z,46.70
2022-08-21T00:27:53.002Z,46.70
2022-08-21T00:30:23.006Z,46.70
2022-08-21T00:32:51.964Z,46.70
2022-08-21T00:35:21.315Z,46.70
2022-08-21T00:37:50.621Z,46.70
2022-08-21T00:40:20.487Z,46.80
2022-08-21T00:42:53.199Z,46.70
2022-08-21T00:45:22.073Z,46.70
2022-08-21T00:47:50.002Z,46.70
2022-08-21T00:50:21.530Z,46.70
2022-08-21T00:52:51.793Z,46.70
2022-08-21T00:55:20.343Z,46.70
2022-08-21T00:57:51.780Z,46.70
2022-08-21T01:00:21.497Z,46.70
2022-08-21T01:02:49.531Z,46.80
2022-08-21T01:05:17.926Z,46.80
2022-08-21T01:07:46.125Z,46.80
2022-08-21T01:10:24.481Z,46.70
2022-08-21T01:12:52.910Z,46.70
2022-08-21T01:15:20.963Z,46.70
2022-08-21T01:17:49.999Z,46.80
2022-08-21T01:20:18.449Z,46.70
2022-08-21T01:22:47.819Z,46.70
2022-08-21T01:25:17.167Z,46.80
2022-08-21T01:27:45.145Z,46.80
2022-08-21T01:30:15.689Z,46.80
2022-08-21T01:32:43.685Z,46.80
2022-08-21T01:35:12.231Z,46.70
2022-08-21T01:37:40.210Z,47.40
2022-08-21T01:40:11.463Z,46.70
2022-08-21T01:42:39.632Z,46.70
2022-08-21T01:45:08.182Z,46.70
2022-08-21T01:47:36.149Z,46.70
2022-08-21T01:50:05.027Z,46.80
2022-08-21T01:52:32.991Z,46.80
2022-08-21T01:55:00.956Z,46.80
2022-08-21T01:57:30.321Z,46.80
2022-08-21T01:59:58.280Z,46.80
2022-08-21T02:02:26.255Z,46.70
2022-08-21T02:04:54.228Z,47.50
2022-08-21T02:07:22.208Z,46.80
2022-08-21T02:09:50.335Z,46.80
2022-08-21T02:12:18.695Z,46.90
2022-08-21T02:14:48.044Z,46.80
2022-08-21T02:17:16.177Z,47.60
2022-08-21T02:19:44.301Z,46.90
2022-08-21T02:22:12.430Z,46.90
2022-08-21T02:24:50.162Z,46.90
2022-08-21T02:27:26.194Z,47.00
2022-08-21T02:29:57.417Z,47.00
2022-08-21T02:32:25.734Z,46.90
2022-08-21T02:34:53.678Z,46.90
2022-08-21T02:37:21.830Z,47.00
2022-08-21T02:39:50.682Z,47.00
2022-08-21T02:42:18.947Z,47.00
2022-08-21T02:44:46.954Z,47.00
2022-08-21T02:47:16.456Z,47.00
2022-08-21T02:49:44.513Z,47.00
2022-08-21T02:52:12.930Z,47.10
2022-08-21T02:54:41.303Z,47.00
2022-08-21T02:57:09.407Z,47.00
2022-08-21T02:59:37.544Z,47.10
2022-08-21T03:02:05.913Z,47.10
2022-08-21T03:04:35.259Z,47.10
2022-08-21T03:07:03.389Z,47.10
2022-08-21T03:09:33.114Z,47.10
2022-08-21T03:12:01.042Z,47.10
2022-08-21T03:14:28.975Z,47.10
2022-08-21T03:16:56.931Z,47.10
2022-08-21T03:19:25.013Z,47.20
2022-08-21T03:21:54.308Z,47.10
2022-08-21T03:24:22.292Z,47.10
2022-08-21T03:26:50.934Z,47.10
2022-08-21T03:29:18.886Z,47.20
2022-08-21T03:31:46.852Z,47.20
2022-08-21T03:34:14.872Z,47.20
2022-08-21T03:36:43.031Z,47.20
2022-08-21T03:39:12.405Z,47.20
2022-08-21T03:41:40.367Z,47.20
2022-08-21T03:44:08.377Z,47.90
2022-08-21T03:46:36.499Z,47.20
2022-08-21T03:49:04.750Z,47.20
2022-08-21T03:51:34.755Z,47.20
2022-08-21T03:54:02.902Z,47.20
2022-08-21T03:56:32.492Z,47.30
2022-08-21T03:59:00.876Z,47.30
2022-08-21T04:01:29.358Z,47.30
2022-08-21T04:03:57.546Z,47.30
2022-08-21T04:06:25.990Z,47.40
2022-08-21T04:08:54.227Z,47.40
2022-08-21T04:11:22.321Z,47.40
2022-08-21T04:13:51.776Z,47.40
2022-08-21T04:16:20.589Z,47.40
2022-08-21T04:18:48.602Z,47.40
2022-08-21T04:21:16.711Z,47.50
2022-08-21T04:23:45.126Z,47.50
2022-08-21T04:26:13.275Z,47.50
2022-08-21T04:28:41.455Z,47.50
2022-08-21T04:31:10.942Z,47.50
2022-08-21T04:33:38.998Z,47.50
2022-08-21T04:36:07.837Z,47.50
2022-08-21T04:38:37.616Z,47.50
2022-08-21T04:41:06.386Z,47.50
2022-08-21T04:43:34.397Z,47.50
2022-08-21T04:46:02.376Z,47.50
2022-08-21T04:48:32.059Z,47.80
2022-08-21T04:51:02.165Z,47.50
2022-08-21T04:53:33.345Z,47.50
2022-08-21T04:56:05.399Z,48.10
2022-08-21T04:58:34.558Z,47.50
2022-08-21T05:01:02.813Z,47.50
2022-08-21T05:03:32.455Z,47.50
2022-08-21T05:06:00.598Z,47.50
2022-08-21T05:08:28.721Z,47.40
2022-08-21T05:11:00.350Z,47.40
2022-08-21T05:13:29.065Z,47.40
2022-08-21T05:15:57.032Z,47.30
2022-08-21T05:18:25.643Z,47.30
2022-08-21T05:20:54.925Z,47.30
2022-08-21T05:23:22.890Z,47.20
2022-08-21T05:25:51.286Z,47.20
2022-08-21T05:28:19.656Z,47.20
2022-08-21T05:30:48.084Z,47.30
2022-08-21T05:33:16.066Z,47.30
2022-08-21T05:35:44.011Z,47.20
2022-08-21T05:38:18.410Z,47.10
2022-08-21T05:40:47.056Z,47.10
2022-08-21T05:43:15.179Z,47.10
2022-08-21T05:45:44.310Z,47.10
2022-08-21T05:48:14.072Z,47.10
2022-08-21T05:50:42.155Z,47.00
2022-08-21T05:53:10.627Z,47.00
2022-08-21T05:55:44.822Z,47.00
2022-08-21T05:58:14.160Z,47.00
2022-08-21T06:00:42.573Z,47.00
2022-08-21T06:03:13.621Z,47.00
2022-08-21T06:05:41.583Z,47.00
2022-08-21T06:08:09.550Z,46.90
2022-08-21T06:10:38.857Z,46.90
2022-08-21T06:13:06.820Z,47.00
2022-08-21T06:15:34.781Z,47.00
2022-08-21T06:18:02.763Z,47.10
2022-08-21T06:20:30.788Z,47.10
2022-08-21T06:22:59.906Z,47.70
2022-08-21T06:25:27.985Z,47.00
2022-08-21T06:28:02.809Z,47.10
2022-08-21T06:30:30.797Z,47.10
2022-08-21T06:32:59.031Z,47.00
2022-08-21T06:35:27.423Z,47.00
2022-08-21T06:37:55.393Z,47.00
2022-08-21T06:40:23.534Z,47.00
2022-08-21T06:42:53.077Z,47.00
2022-08-21T06:45:23.479Z,47.70
2022-08-21T06:47:51.424Z,47.10
2022-08-21T06:50:20.720Z,47.00
2022-08-21T06:52:48.672Z,47.00
2022-08-21T06:55:22.313Z,47.00
2022-08-21T06:57:52.647Z,47.00
2022-08-21T07:00:22.631Z,47.00
2022-08-21T07:02:50.646Z,47.10
2022-08-21T07:05:18.876Z,47.10
2022-08-21T07:07:46.937Z,47.10
2022-08-21T07:10:21.652Z,47.10
2022-08-21T07:12:51.274Z,47.10
2022-08-21T07:15:30.784Z,47.10
2022-08-21T07:17:59.169Z,47.10
2022-08-21T07:20:27.505Z,47.10
2022-08-21T07:22:55.507Z,47.10
2022-08-21T07:25:23.598Z,47.80
2022-08-21T07:27:51.596Z,47.20
2022-08-21T07:30:19.607Z,47.30
2022-08-21T07:32:50.293Z,47.30
2022-08-21T07:35:18.377Z,47.30
2022-08-21T07:37:46.571Z,47.30
2022-08-21T07:40:14.833Z,47.30
2022-08-21T07:42:43.301Z,47.30
2022-08-21T07:45:11.760Z,47.30
2022-08-21T07:47:42.152Z,47.40
2022-08-21T07:50:12.519Z,47.40
2022-08-21T07:52:40.754Z,47.40
2022-08-21T07:55:09.782Z,47.40
2022-08-21T07:57:37.842Z,47.50
2022-08-21T08:00:06.710Z,47.50
2022-08-21T08:02:34.703Z,47.70
2022-08-21T08:05:02.923Z,47.70
2022-08-21T08:07:32.805Z,47.80
2022-08-21T08:10:00.786Z,47.90
2022-08-21T08:12:30.460Z,47.90
2022-08-21T08:14:58.891Z,48.00
2022-08-21T08:17:26.911Z,48.20
2022-08-21T08:19:54.976Z,48.30
2022-08-21T08:22:25.770Z,48.30
2022-08-21T08:24:55.273Z,48.40
2022-08-21T08:27:23.275Z,48.50
2022-08-21T08:29:51.427Z,48.50
2022-08-21T08:32:19.556Z,48.60
2022-08-21T08:34:52.518Z,48.60
2022-08-21T08:37:20.792Z,49.30
2022-08-21T08:39:52.145Z,48.70
2022-08-21T08:42:32.866Z,48.70
2022-08-21T08:45:04.189Z,48.80
2022-08-21T08:47:32.564Z,48.80
2022-08-21T08:50:04.397Z,48.80
2022-08-21T08:52:34.317Z,48.80
2022-08-21T08:55:05.313Z,48.80
2022-08-21T08:57:34.976Z,48.80
2022-08-21T09:00:04.876Z,48.80
2022-08-21T09:02:34.468Z,49.00
2022-08-21T09:05:02.528Z,48.80
2022-08-21T09:07:36.158Z,48.80
2022-08-21T09:10:08.524Z,48.80
2022-08-21T09:12:43.019Z,48.80
2022-08-21T09:15:17.810Z,48.80
2022-08-21T09:18:10.030Z,48.70
2022-08-21T09:20:40.916Z,49.40
2022-08-21T09:23:14.306Z,48.70
2022-08-21T09:25:45.076Z,48.80
2022-08-21T09:28:15.704Z,48.70
2022-08-21T09:30:44.102Z,48.80
2022-08-21T09:33:13.509Z,48.70
2022-08-21T09:35:50.768Z,48.70
2022-08-21T09:38:27.445Z,48.70
2022-08-21T09:40:59.212Z,48.70
2022-08-21T09:43:28.608Z,48.70
2022-08-21T09:46:11.614Z,48.70
2022-08-21T09:48:44.971Z,48.60
2022-08-21T09:51:14.734Z,48.60
2022-08-21T09:53:46.812Z,48.60
2022-08-21T09:56:38.003Z,48.50
2022-08-21T09:59:20.280Z,48.50
2022-08-21T10:01:49.616Z,48.50
2022-08-21T10:04:18.065Z,48.50
2022-08-21T10:06:45.976Z,48.50
2022-08-21T10:09:21.033Z,48.40
2022-08-21T10:11:54.830Z,48.40
2022-08-21T10:14:54.602Z,48.40
2022-08-21T10:17:29.713Z,48.30
2022-08-21T10:20:02.438Z,48.20
2022-08-21T10:22:36.703Z,48.30
2022-08-21T10:25:10.117Z,48.20
2022-08-21T10:27:43.216Z,48.20
2022-08-21T10:30:14.326Z,48.10
2022-08-21T10:32:53.243Z,48.00
2022-08-21T10:35:24.140Z,48.10
2022-08-21T10:38:00.154Z,48.00
2022-08-21T10:40:29.642Z,47.90
2022-08-21T10:43:14.774Z,47.80
2022-08-21T10:45:51.788Z,47.80
2022-08-21T10:48:24.913Z,47.80
2022-08-21T10:50:54.979Z,47.80
2022-08-21T10:53:49.296Z,47.70
2022-08-21T10:56:19.288Z,47.70
2022-08-21T10:58:50.703Z,47.60
2022-08-21T11:01:22.710Z,47.50
2022-08-21T11:03:53.188Z,47.30
2022-08-21T11:06:22.948Z,47.20
2022-08-21T11:08:55.068Z,47.00
2022-08-21T11:11:24.831Z,46.90
2022-08-21T11:13:59.476Z,46.80
2022-08-21T11:16:33.658Z,46.70
2022-08-21T11:19:04.892Z,46.60
2022-08-21T11:21:38.496Z,46.50
2022-08-21T11:24:18.107Z,46.50
2022-08-21T11:26:51.288Z,46.40
2022-08-21T11:29:22.056Z,46.30
2022-08-21T11:31:58.631Z,46.10
2022-08-21T11:34:39.449Z,46.10
2022-08-21T11:37:10.507Z,45.90
2022-08-21T11:39:43.379Z,45.80
2022-08-21T11:42:16.160Z,45.70
2022-08-21T11:44:49.274Z,45.60
2022-08-21T11:47:25.168Z,45.50
2022-08-21T11:49:59.831Z,45.40
2022-08-21T11:52:30.304Z,45.30
2022-08-21T11:54:59.934Z,45.20
2022-08-21T11:57:31.565Z,45.10
2022-08-21T12:00:02.849Z,45.00
2022-08-21T12:02:33.880Z,44.90
2022-08-21T12:05:08.460Z,44.90
2022-08-21T12:07:38.113Z,44.80
2022-08-21T12:10:07.995Z,44.70
2022-08-21T12:12:36.868Z,44.60
2022-08-21T12:15:26.904Z,44.40
2022-08-21T12:17:58.730Z,44.40
2022-08-21T12:20:37.891Z,44.50
2022-08-21T12:23:09.840Z,44.60
2022-08-21T12:25:43.322Z,44.50
2022-08-21T12:28:12.140Z,44.50
2022-08-21T12:30:41.222Z,44.50
2022-08-21T12:33:23.550Z,44.50
2022-08-21T12:35:52.012Z,44.50
2022-08-21T12:38:22.272Z,44.50
2022-08-21T12:40:52.754Z,44.50
2022-08-21T12:43:24.079Z,44.40
2022-08-21T12:45:53.488Z,44.30
2022-08-21T12:48:25.363Z,44.30
2022-08-21T12:50:54.535Z,44.20
2022-08-21T12:53:29.125Z,44.10
2022-08-21T12:56:03.686Z,44.10
2022-08-21T12:58:32.469Z,44.00
2022-08-21T13:01:04.156Z,44.00
2022-08-21T13:03:34.069Z,43.90
2022-08-21T13:06:02.173Z,44.00
2022-08-21T13:08:31.353Z,43.90
2022-08-21T13:11:01.093Z,43.90
2022-08-21T13:13:46.920Z,43.90
2022-08-21T13:16:21.132Z,43.90
2022-08-21T13:18:57.434Z,44.00
2022-08-21T13:21:29.845Z,44.60
2022-08-21T13:27:21.798Z,44.60
2022-08-21T13:29:52.177Z,43.90
2022-08-21T13:32:24.931Z,43.80
2022-08-21T13:34:54.512Z,43.90
2022-08-21T13:37:22.531Z,43.80
2022-08-21T13:39:52.877Z,43.80
2022-08-21T13:42:21.158Z,43.80
2022-08-21T13:44:50.045Z,43.80
2022-08-21T13:47:18.382Z,43.70
2022-08-21T13:49:47.600Z,43.80
2022-08-21T13:52:18.776Z,43.70
2022-08-21T13:54:53.275Z,43.80
2022-08-21T13:57:22.203Z,44.50
2022-08-21T13:59:50.162Z,43.80
2022-08-21T14:02:21.305Z,44.40
2022-08-21T14:04:54.098Z,43.80
2022-08-21T14:07:27.067Z,43.80
2022-08-21T14:09:55.098Z,43.70
2022-08-21T14:12:27.504Z,43.70
2022-08-21T14:14:56.046Z,43.70
2022-08-21T14:17:33.385Z,43.70
2022-08-21T14:20:01.864Z,43.70
2022-08-21T14:22:33.497Z,43.60
2022-08-21T14:25:03.234Z,43.60
2022-08-21T14:27:32.022Z,44.20
2022-08-21T14:30:01.663Z,43.50
2022-08-21T14:32:32.799Z,44.10
2022-08-21T14:35:01.916Z,43.40
2022-08-21T14:37:31.242Z,43.40
2022-08-21T14:39:59.434Z,43.40
2022-08-21T14:42:28.753Z,43.30
2022-08-21T14:44:56.794Z,43.30
2022-08-21T14:47:24.825Z,43.30
2022-08-21T14:49:54.815Z,43.20
2022-08-21T14:52:23.975Z,43.20
2022-08-21T14:54:53.290Z,43.30
2022-08-21T14:57:21.298Z,43.20
2022-08-21T14:59:49.629Z,43.30
2022-08-21T15:02:17.600Z,43.30
2022-08-21T15:04:45.622Z,43.30
2022-08-21T15:07:13.566Z,43.30
2022-08-21T15:09:41.807Z,43.30
2022-08-21T15:12:11.676Z,43.20
2022-08-21T15:14:41.775Z,43.20
2022-08-21T15:17:09.904Z,43.10
2022-08-21T15:19:38.408Z,43.10
2022-08-21T15:22:06.479Z,43.10
2022-08-21T15:24:43.554Z,43.00
2022-08-21T15:27:12.887Z,43.10
2022-08-21T15:29:44.781Z,43.10
2022-08-21T15:32:20.664Z,43.20
2022-08-21T15:34:48.625Z,43.30
2022-08-21T15:37:16.593Z,43.30
2022-08-21T15:39:48.384Z,43.50
2022-08-21T15:42:21.691Z,44.10
2022-08-21T15:44:49.660Z,44.20
2022-08-21T15:47:21.712Z,43.50
2022-08-21T15:49:49.694Z,43.70
2022-08-21T15:52:18.150Z,43.70
2022-08-21T15:54:46.094Z,43.70
2022-08-21T15:57:14.350Z,43.80
2022-08-21T15:59:44.656Z,43.80
2022-08-21T16:02:15.096Z,43.80
2022-08-21T16:04:43.110Z,43.90
2022-08-21T16:07:11.144Z,43.90
2022-08-21T16:09:39.137Z,43.90
2022-08-21T16:12:07.384Z,43.90
2022-08-21T16:14:37.134Z,43.90
2022-08-21T16:17:07.928Z,43.90
2022-08-21T16:19:36.046Z,43.90
2022-08-21T16:22:03.984Z,43.90
2022-08-21T16:24:32.128Z,43.90
2022-08-21T16:27:02.753Z,43.90
2022-08-21T16:29:32.849Z,43.90
2022-08-21T16:32:02.203Z,44.00
2022-08-21T16:34:31.508Z,44.00
2022-08-21T16:36:59.504Z,44.00
2022-08-21T16:39:27.593Z,44.00
2022-08-21T16:41:55.559Z,44.10
2022-08-21T16:44:23.925Z,44.00
2022-08-21T16:46:51.926Z,44.00
2022-08-21T16:49:19.924Z,44.00
2022-08-21T16:51:52.220Z,44.00
2022-08-21T16:54:20.188Z,44.00
2022-08-21T16:56:48.208Z,43.90
2022-08-21T16:59:17.474Z,44.60
2022-08-21T17:01:45.686Z,44.00
2022-08-21T17:04:13.757Z,43.90
2022-08-21T17:06:41.826Z,44.60
2022-08-21T17:09:11.423Z,43.80
2022-08-21T17:11:40.991Z,43.80
2022-08-21T17:14:10.344Z,43.80
2022-08-21T17:16:38.314Z,43.80
2022-08-21T17:19:08.157Z,43.80
2022-08-21T17:21:36.379Z,43.80
2022-08-21T17:24:04.824Z,43.70
2022-08-21T17:26:34.227Z,43.70
2022-08-21T17:29:02.151Z,43.50
2022-08-21T17:31:30.591Z,43.60
2022-08-21T17:33:58.545Z,43.50
2022-08-21T17:36:27.644Z,43.50
2022-08-21T17:38:56.066Z,43.50
2022-08-21T17:41:24.221Z,43.40
2022-08-21T17:43:55.225Z,43.40
2022-08-21T17:46:24.660Z,43.40
2022-08-21T17:48:52.658Z,43.40
2022-08-21T17:51:20.812Z,43.50
2022-08-21T17:53:48.784Z,44.20
2022-08-21T17:56:17.465Z,43.60
2022-08-21T17:58:47.110Z,43.70
2022-08-21T18:01:16.518Z,43.70
2022-08-21T18:03:46.381Z,43.70
2022-08-21T18:06:17.781Z,43.70
2022-08-21T18:08:46.244Z,43.80
2022-08-21T18:11:23.820Z,43.90
2022-08-21T18:13:52.593Z,43.90
2022-08-21T18:16:21.930Z,43.90
2022-08-21T18:18:51.502Z,43.90
2022-08-21T18:21:19.614Z,44.00
2022-08-21T18:23:47.579Z,44.00
2022-08-21T18:26:16.177Z,44.00
2022-08-21T18:28:44.515Z,44.10
2022-08-21T18:31:12.545Z,44.10
2022-08-21T18:33:57.692Z,44.10
2022-08-21T18:36:26.844Z,44.20
2022-08-21T18:38:55.005Z,44.20
2022-08-21T18:41:23.140Z,44.20
2022-08-21T18:43:51.068Z,44.30
2022-08-21T18:46:19.195Z,44.30
2022-08-21T18:48:50.599Z,45.00
2022-08-21T18:51:20.607Z,44.30
2022-08-21T18:53:53.822Z,44.30
2022-08-21T18:56:24.143Z,44.40
2022-08-21T18:58:57.557Z,44.40
2022-08-21T19:01:26.343Z,44.40
2022-08-21T19:03:55.693Z,44.40
2022-08-21T19:06:24.624Z,45.10
2022-08-21T19:08:52.558Z,44.70
2022-08-21T19:11:23.405Z,44.40
2022-08-21T19:13:51.972Z,44.40
2022-08-21T19:16:19.932Z,44.50
2022-08-21T19:18:47.871Z,45.20
2022-08-21T19:21:17.485Z,44.50
2022-08-21T19:23:48.232Z,44.60
2022-08-21T19:26:21.960Z,44.60
2022-08-21T19:28:55.266Z,44.60
2022-08-21T19:31:28.924Z,44.60
2022-08-21T19:34:01.822Z,44.70
2022-08-21T19:36:31.683Z,44.70
2022-08-21T19:39:00.077Z,44.70
2022-08-21T19:41:28.782Z,44.70
2022-08-21T19:43:58.614Z,44.70
2022-08-21T19:46:28.126Z,44.70
2022-08-21T19:48:56.204Z,44.80
2022-08-21T19:51:25.228Z,44.80
2022-08-21T19:53:57.227Z,44.80
2022-08-21T19:56:26.493Z,44.80
2022-08-21T19:58:55.207Z,45.00
2022-08-21T20:01:24.034Z,45.00
2022-08-21T20:06:40.528Z,45.00
2022-08-21T20:09:11.992Z,45.00
2022-08-21T20:11:40.878Z,45.20
2022-08-21T20:14:08.937Z,45.10
2022-08-21T20:16:37.847Z,45.80
2022-08-21T20:19:09.557Z,45.90
2022-08-21T20:21:44.164Z,45.20
2022-08-21T20:24:14.774Z,45.30
2022-08-21T20:26:43.329Z,45.30
2022-08-21T20:29:17.631Z,45.30
2022-08-21T20:31:52.612Z,45.40
2022-08-21T20:34:20.597Z,45.30
2022-08-21T20:36:48.539Z,45.40
2022-08-21T20:39:23.816Z,45.30
2022-08-21T20:41:52.452Z,46.00
2022-08-21T20:44:20.636Z,45.40
2022-08-21T20:46:48.654Z,45.50
2022-08-21T20:49:20.885Z,45.50
2022-08-21T20:51:50.549Z,45.50
2022-08-21T20:54:23.174Z,45.50
2022-08-21T20:56:54.191Z,45.50
2022-08-21T20:59:27.135Z,45.50
2022-08-21T21:01:57.157Z,45.50
2022-08-21T21:04:34.357Z,45.50
2022-08-21T21:07:02.553Z,45.60
2022-08-21T21:09:40.329Z,46.30
2022-08-21T21:12:12.069Z,45.70
2022-08-21T21:14:41.948Z,45.80
2022-08-21T21:17:17.880Z,45.80
2022-08-21T21:19:56.357Z,45.80
2022-08-21T21:22:26.409Z,45.90
2022-08-21T21:24:57.714Z,46.00
2022-08-21T21:27:29.891Z,46.00
2022-08-21T21:30:05.677Z,46.00
2022-08-21T21:32:39.998Z,46.00
2022-08-21T21:35:08.908Z,46.00
2022-08-21T21:37:39.896Z,46.10
2022-08-21T21:40:23.777Z,46.10
2022-08-21T21:43:07.983Z,46.10
2022-08-21T21:45:40.009Z,46.10
2022-08-21T21:48:21.255Z,46.20
2022-08-21T21:50:53.444Z,46.20
2022-08-21T21:53:28.961Z,46.90
2022-08-21T21:56:14.018Z,46.20
2022-08-21T21:58:59.338Z,46.20
2022-08-21T22:01:33.436Z,46.20
2022-08-21T22:06:54.235Z,46.20
2022-08-21T22:09:24.618Z,46.20
2022-08-21T22:12:01.136Z,46.30
2022-08-21T22:14:34.151Z,46.30
2022-08-21T22:17:05.357Z,46.30
2022-08-21T22:19:38.097Z,46.30
2022-08-21T22:22:09.150Z,46.20
2022-08-21T22:24:40.290Z,46.20
2022-08-21T22:27:11.572Z,46.20
2022-08-21T22:29:44.893Z,46.20
2022-08-21T22:32:13.159Z,46.90
2022-08-21T22:34:42.022Z,46.20
2022-08-21T22:37:11.842Z,46.20
2022-08-21T22:39:41.644Z,46.20
2022-08-21T22:42:13.518Z,46.90
2022-08-21T22:44:51.023Z,46.90
2022-08-21T22:47:21.136Z,46.30
2022-08-21T22:49:50.704Z,46.20
2022-08-21T22:52:22.144Z,46.90
2022-08-21T22:54:51.558Z,46.30
2022-08-21T22:57:26.730Z,46.30
2022-08-21T22:59:57.787Z,46.30
2022-08-21T23:02:37.752Z,46.30
2022-08-21T23:07:56.233Z,46.30
2022-08-21T23:10:26.615Z,46.40
2022-08-21T23:13:06.166Z,46.50
2022-08-21T23:15:41.090Z,46.50
2022-08-21T23:18:13.517Z,46.50
2022-08-21T23:20:43.780Z,46.50
2022-08-21T23:23:15.296Z,46.50
2022-08-21T23:26:17.253Z,46.50
2022-08-21T23:28:56.660Z,46.50
2022-08-21T23:31:29.109Z,46.50
2022-08-21T23:34:05.929Z,46.60
2022-08-21T23:36:56.730Z,46.60
2022-08-21T23:39:43.520Z,46.60
2022-08-21T23:42:16.435Z,46.60
2022-08-21T23:44:56.604Z,46.60
2022-08-21T23:47:33.956Z,46.60
2022-08-21T23:50:13.898Z,46.60
2022-08-21T23:52:49.468Z,46.60
2022-08-21T23:55:24.718Z,46.70
2022-08-21T23:57:58.959Z,46.70
